createdAt,value
2017-12-29T00:01:40.540Z,4.33
2017-12-29T00:04:06.950Z,3.30
2017-12-29T00:06:33.384Z,3.53
2017-12-29T00:08:59.771Z,3.80
2017-12-29T00:11:26.246Z,3.00
2017-12-29T00:13:52.705Z,3.57
2017-12-29T00:16:26.000Z,3.10
2017-12-29T00:18:52.348Z,3.57
2017-12-29T00:21:18.823Z,3.80
2017-12-29T00:23:45.243Z,2.97
2017-12-29T00:26:11.663Z,2.93
2017-12-29T00:28:38.139Z,3.07
2017-12-29T00:31:04.559Z,3.00
2017-12-29T00:33:30.930Z,3.03
2017-12-29T00:35:57.472Z,3.30
2017-12-29T00:38:23.946Z,2.70
2017-12-29T00:40:50.388Z,3.10
2017-12-29T00:43:16.868Z,2.93
2017-12-29T00:45:43.265Z,3.00
2017-12-29T00:48:09.647Z,3.13
2017-12-29T00:50:36.042Z,3.20
2017-12-29T00:53:02.467Z,2.43
2017-12-29T00:55:28.830Z,2.80
2017-12-29T00:57:55.245Z,3.50
2017-12-29T01:00:21.655Z,2.70
2017-12-29T01:02:48.183Z,2.90
2017-12-29T01:05:14.603Z,3.60
2017-12-29T01:07:41.032Z,3.50
2017-12-29T01:10:07.511Z,2.80
2017-12-29T01:12:33.995Z,3.00
2017-12-29T01:15:00.415Z,3.20
2017-12-29T01:17:26.843Z,3.43
2017-12-29T01:19:53.294Z,3.37
2017-12-29T01:22:19.731Z,2.90
2017-12-29T01:24:46.107Z,3.00
2017-12-29T01:27:12.516Z,3.33
2017-12-29T01:29:38.946Z,2.70
2017-12-29T01:32:05.429Z,3.17
2017-12-29T01:34:31.911Z,3.70
2017-12-29T01:36:58.444Z,4.10
2017-12-29T01:39:24.823Z,5.47
2017-12-29T01:41:51.296Z,5.67
2017-12-29T01:44:17.727Z,4.17
2017-12-29T01:46:44.239Z,4.60
2017-12-29T01:49:10.687Z,4.03
2017-12-29T01:51:52.071Z,3.23
2017-12-29T01:54:18.548Z,3.17
2017-12-29T01:56:44.955Z,3.07
2017-12-29T01:59:11.457Z,3.20
2017-12-29T02:01:37.859Z,3.70
2017-12-29T02:04:04.469Z,4.37
2017-12-29T02:06:30.887Z,3.30
2017-12-29T02:08:57.298Z,4.13
2017-12-29T02:11:23.651Z,4.03
2017-12-29T02:13:50.087Z,3.73
2017-12-29T02:16:16.531Z,3.87
2017-12-29T02:18:42.963Z,4.97
2017-12-29T02:21:09.410Z,5.13
2017-12-29T02:23:35.907Z,4.90
2017-12-29T02:26:02.271Z,4.63
2017-12-29T02:28:28.688Z,4.53
2017-12-29T02:30:55.128Z,4.43
2017-12-29T02:33:21.626Z,4.47
2017-12-29T02:35:48.077Z,4.03
2017-12-29T02:38:14.467Z,3.73
2017-12-29T02:40:40.863Z,3.53
2017-12-29T02:43:07.216Z,3.43
2017-12-29T02:45:33.672Z,3.07
2017-12-29T02:48:00.079Z,3.67
2017-12-29T02:50:26.432Z,3.63
2017-12-29T02:52:52.843Z,4.43
2017-12-29T02:55:19.203Z,3.43
2017-12-29T02:57:45.616Z,5.00
2017-12-29T03:00:12.004Z,5.13
2017-12-29T03:02:38.420Z,4.80
2017-12-29T03:05:04.827Z,5.10
2017-12-29T03:07:31.260Z,9.83
2017-12-29T03:09:57.675Z,6.33
2017-12-29T03:12:24.112Z,5.10
2017-12-29T03:14:50.558Z,7.23
2017-12-29T03:17:16.975Z,8.43
2017-12-29T03:19:43.347Z,28.53
2017-12-29T03:22:09.851Z,12.53
2017-12-29T03:24:36.228Z,8.00
2017-12-29T03:27:02.707Z,26.10
2017-12-29T03:29:29.139Z,12.00
2017-12-29T03:31:55.771Z,5.10
2017-12-29T03:34:22.231Z,4.03
2017-12-29T03:36:48.647Z,3.60
2017-12-29T03:39:15.039Z,3.60
2017-12-29T03:41:41.463Z,4.20
2017-12-29T03:44:07.895Z,4.00
2017-12-29T03:46:34.304Z,4.40
2017-12-29T03:49:00.687Z,3.97
2017-12-29T03:51:27.099Z,4.70
2017-12-29T03:53:53.539Z,4.57
2017-12-29T03:56:19.911Z,4.60
2017-12-29T03:58:46.459Z,4.17
2017-12-29T04:01:12.871Z,4.10
2017-12-29T04:03:39.300Z,4.10
2017-12-29T04:06:05.827Z,3.80
2017-12-29T04:08:32.295Z,3.73
2017-12-29T04:10:58.755Z,3.80
2017-12-29T04:13:25.187Z,3.70
2017-12-29T04:15:51.535Z,3.90
2017-12-29T04:18:17.879Z,3.93
2017-12-29T04:20:44.315Z,3.40
2017-12-29T04:23:10.749Z,3.60
2017-12-29T04:25:37.167Z,3.50
2017-12-29T04:28:03.671Z,3.20
2017-12-29T04:30:30.075Z,2.60
2017-12-29T04:32:56.419Z,3.33
2017-12-29T04:35:22.895Z,3.30
2017-12-29T04:37:49.299Z,3.60
2017-12-29T04:40:15.755Z,3.53
2017-12-29T04:42:42.221Z,4.10
2017-12-29T04:45:08.718Z,8.33
2017-12-29T04:47:35.175Z,4.80
2017-12-29T04:50:01.576Z,3.57
2017-12-29T04:52:27.992Z,3.67
2017-12-29T04:54:54.349Z,4.93
2017-12-29T04:57:20.812Z,6.00
2017-12-29T04:59:47.271Z,4.63
2017-12-29T05:02:13.650Z,4.20
2017-12-29T05:04:40.032Z,5.20
2017-12-29T05:07:06.451Z,5.87
2017-12-29T05:09:32.963Z,4.03
2017-12-29T05:12:00.352Z,7.17
2017-12-29T05:14:26.744Z,4.83
2017-12-29T05:16:53.225Z,4.13
2017-12-29T05:19:19.708Z,5.40
2017-12-29T05:21:46.167Z,6.70
2017-12-29T05:24:12.615Z,5.57
2017-12-29T05:26:39.097Z,6.83
2017-12-29T05:29:05.542Z,7.10
2017-12-29T05:31:32.019Z,13.53
2017-12-29T05:33:58.435Z,6.60
2017-12-29T05:36:24.984Z,6.27
2017-12-29T05:38:51.415Z,8.03
2017-12-29T05:41:17.890Z,6.73
2017-12-29T05:43:44.263Z,6.10
2017-12-29T05:46:10.699Z,6.50
2017-12-29T05:48:37.225Z,6.03
2017-12-29T05:51:03.663Z,6.13
2017-12-29T05:53:30.061Z,7.03
2017-12-29T05:55:56.535Z,7.20
2017-12-29T05:58:23.115Z,6.80
2017-12-29T06:00:49.555Z,8.20
2017-12-29T06:03:16.092Z,10.23
2017-12-29T06:05:42.488Z,15.73
2017-12-29T06:08:08.935Z,12.00
2017-12-29T06:10:35.387Z,39.43
2017-12-29T06:13:01.802Z,28.33
2017-12-29T06:15:28.187Z,10.60
2017-12-29T06:17:55.667Z,8.33
2017-12-29T06:20:22.052Z,14.93
2017-12-29T06:22:48.511Z,13.77
2017-12-29T06:25:14.892Z,11.57
2017-12-29T06:27:41.376Z,10.07
2017-12-29T06:30:07.710Z,17.50
2017-12-29T06:32:34.147Z,16.07
2017-12-29T06:35:00.563Z,11.37
2017-12-29T06:37:27.024Z,15.07
2017-12-29T06:39:53.479Z,13.00
2017-12-29T06:42:19.895Z,12.63
2017-12-29T06:44:46.410Z,11.50
2017-12-29T06:47:12.926Z,13.70
2017-12-29T06:49:39.395Z,12.30
2017-12-29T06:52:05.814Z,18.83
2017-12-29T06:54:32.324Z,18.40
2017-12-29T06:56:58.723Z,14.93
2017-12-29T06:59:25.106Z,15.87
2017-12-29T07:01:51.494Z,22.50
2017-12-29T07:04:17.850Z,22.57
2017-12-29T07:06:44.327Z,22.43
2017-12-29T07:09:10.738Z,19.00
2017-12-29T07:11:37.147Z,18.73
2017-12-29T07:14:03.535Z,19.87
2017-12-29T07:16:30.025Z,19.83
2017-12-29T07:18:56.452Z,20.20
2017-12-29T07:21:23.051Z,23.13
2017-12-29T07:23:49.533Z,26.07
2017-12-29T07:26:15.954Z,26.63
2017-12-29T07:28:42.375Z,31.13
2017-12-29T07:31:08.835Z,31.90
2017-12-29T07:33:35.255Z,34.03
2017-12-29T07:36:01.648Z,35.70
2017-12-29T07:38:28.122Z,34.33
2017-12-29T07:40:54.629Z,32.63
2017-12-29T07:43:21.020Z,39.63
2017-12-29T07:45:47.509Z,35.50
2017-12-29T07:48:13.916Z,32.63
2017-12-29T07:50:40.399Z,25.50
2017-12-29T07:53:06.879Z,34.07
2017-12-29T07:55:33.269Z,33.07
2017-12-29T07:58:01.496Z,37.93
2017-12-29T08:00:28.910Z,39.93
2017-12-29T08:02:55.581Z,26.37
2017-12-29T08:05:22.864Z,30.83
2017-12-29T08:07:51.105Z,32.43
2017-12-29T08:10:19.746Z,38.97
2017-12-29T08:12:47.769Z,47.17
2017-12-29T08:15:14.912Z,41.30
2017-12-29T08:18:03.238Z,34.73
2017-12-29T08:20:30.111Z,34.70
2017-12-29T08:22:57.343Z,31.83
2017-12-29T08:25:25.061Z,37.83
2017-12-29T08:27:52.641Z,41.30
2017-12-29T08:30:20.560Z,40.27
2017-12-29T08:32:49.748Z,52.77
2017-12-29T08:35:17.778Z,48.97
2017-12-29T08:37:45.010Z,37.07
2017-12-29T08:40:12.531Z,38.47
2017-12-29T08:42:39.873Z,29.77
2017-12-29T08:45:07.389Z,19.80
2017-12-29T08:47:34.419Z,20.63
2017-12-29T08:50:00.807Z,20.70
2017-12-29T08:52:27.224Z,18.70
2017-12-29T08:54:53.620Z,17.20
2017-12-29T08:57:19.983Z,19.90
2017-12-29T08:59:46.531Z,19.17
2017-12-29T09:02:13.072Z,19.03
2017-12-29T09:04:39.428Z,17.23
2017-12-29T09:07:05.887Z,17.73
2017-12-29T09:09:32.335Z,17.83
2017-12-29T09:11:58.739Z,16.97
2017-12-29T09:14:25.144Z,14.57
2017-12-29T09:16:51.720Z,12.30
2017-12-29T09:19:18.145Z,15.67
2017-12-29T09:21:44.652Z,16.63
2017-12-29T09:24:11.188Z,15.27
2017-12-29T09:26:37.668Z,14.00
2017-12-29T09:29:04.185Z,13.93
2017-12-29T09:31:30.692Z,15.13
2017-12-29T09:33:57.264Z,14.10
2017-12-29T09:36:23.736Z,14.87
2017-12-29T09:38:50.316Z,13.17
2017-12-29T09:41:16.801Z,14.03
2017-12-29T09:43:43.317Z,16.27
2017-12-29T09:46:09.928Z,16.47
2017-12-29T09:48:36.340Z,16.90
2017-12-29T09:51:02.739Z,19.13
2017-12-29T09:53:29.133Z,19.27
2017-12-29T09:55:55.611Z,15.13
2017-12-29T09:58:21.968Z,12.90
2017-12-29T10:00:48.429Z,13.80
2017-12-29T10:03:14.818Z,13.93
2017-12-29T10:05:41.300Z,13.73
2017-12-29T10:08:07.776Z,15.90
2017-12-29T10:10:34.235Z,12.57
2017-12-29T10:13:00.660Z,15.50
2017-12-29T10:15:27.076Z,9.73
2017-12-29T10:17:53.524Z,16.23
2017-12-29T10:20:19.963Z,12.37
2017-12-29T10:22:46.352Z,16.03
2017-12-29T10:25:12.815Z,17.57
2017-12-29T10:27:39.168Z,12.00
2017-12-29T10:30:05.543Z,12.87
2017-12-29T10:32:32.063Z,10.47
2017-12-29T10:34:58.480Z,22.40
2017-12-29T10:37:24.959Z,18.23
2017-12-29T10:39:51.368Z,18.87
2017-12-29T10:42:18.787Z,16.37
2017-12-29T10:44:45.151Z,16.57
2017-12-29T10:47:11.595Z,12.47
2017-12-29T10:49:38.152Z,15.23
2017-12-29T10:52:04.727Z,11.07
2017-12-29T10:54:31.071Z,11.67
2017-12-29T10:56:57.523Z,12.53
2017-12-29T10:59:24.124Z,14.60
2017-12-29T11:01:50.551Z,12.27
2017-12-29T11:04:17.048Z,10.20
2017-12-29T11:06:43.575Z,10.77
2017-12-29T11:09:10.016Z,10.67
2017-12-29T11:11:36.493Z,10.83
2017-12-29T11:14:02.967Z,10.90
2017-12-29T11:16:29.389Z,7.37
2017-12-29T11:18:55.848Z,8.77
2017-12-29T11:21:22.361Z,7.93
2017-12-29T11:23:48.747Z,9.23
2017-12-29T11:26:15.099Z,8.37
2017-12-29T11:28:41.531Z,10.07
2017-12-29T11:31:07.888Z,8.77
2017-12-29T11:33:34.271Z,8.60
2017-12-29T11:36:00.740Z,8.80
2017-12-29T11:38:27.284Z,10.83
2017-12-29T11:40:53.695Z,9.50
2017-12-29T11:43:20.136Z,9.57
2017-12-29T11:45:46.541Z,11.83
2017-12-29T11:48:12.996Z,11.90
2017-12-29T11:50:39.496Z,13.73
2017-12-29T11:53:05.932Z,8.60
2017-12-29T11:55:32.323Z,10.10
2017-12-29T11:57:58.744Z,10.03
2017-12-29T12:00:25.388Z,12.20
2017-12-29T12:02:51.780Z,11.37
2017-12-29T12:05:18.243Z,8.37
2017-12-29T12:07:44.699Z,9.20
2017-12-29T12:10:11.078Z,9.00
2017-12-29T12:12:37.479Z,11.17
2017-12-29T12:15:03.891Z,10.50
2017-12-29T12:17:30.264Z,9.87
2017-12-29T12:19:56.745Z,10.20
2017-12-29T12:22:23.151Z,10.20
2017-12-29T12:24:49.526Z,10.20
2017-12-29T12:27:16.031Z,10.33
2017-12-29T12:29:42.375Z,12.20
2017-12-29T12:32:08.757Z,11.97
2017-12-29T12:34:35.194Z,11.77
2017-12-29T12:37:01.594Z,10.70
2017-12-29T12:39:27.940Z,11.17
2017-12-29T12:41:54.413Z,10.33
2017-12-29T12:44:20.939Z,11.10
2017-12-29T12:46:47.298Z,12.60
2017-12-29T12:49:13.663Z,13.20
2017-12-29T12:51:40.191Z,12.10
2017-12-29T12:54:06.669Z,14.63
2017-12-29T12:56:33.034Z,13.17
2017-12-29T12:58:59.527Z,15.50
2017-12-29T13:01:25.904Z,27.67
2017-12-29T13:03:52.407Z,19.10
2017-12-29T13:06:19.008Z,18.20
2017-12-29T13:08:45.555Z,18.70
2017-12-29T13:11:12.016Z,12.13
2017-12-29T13:13:38.455Z,14.67
2017-12-29T13:16:04.957Z,13.90
2017-12-29T13:18:31.373Z,12.13
2017-12-29T13:20:57.784Z,12.57
2017-12-29T13:23:24.184Z,13.93
2017-12-29T13:25:50.643Z,11.20
2017-12-29T13:28:17.099Z,11.07
2017-12-29T13:30:43.521Z,11.07
2017-12-29T13:33:09.939Z,13.40
2017-12-29T13:35:36.363Z,13.57
2017-12-29T13:38:02.764Z,14.40
2017-12-29T13:40:29.164Z,15.17
2017-12-29T13:42:55.584Z,13.53
2017-12-29T13:45:21.928Z,16.83
2017-12-29T13:47:48.360Z,15.67
2017-12-29T13:50:14.715Z,14.27
2017-12-29T13:52:41.073Z,14.03
2017-12-29T13:55:07.441Z,12.57
2017-12-29T13:57:34.097Z,11.97
2017-12-29T14:03:08.387Z,13.70
2017-12-29T14:05:34.792Z,12.73
2017-12-29T14:08:01.172Z,13.77
2017-12-29T14:10:27.607Z,14.10
2017-12-29T14:12:54.008Z,16.03
2017-12-29T14:15:20.424Z,18.77
2017-12-29T14:17:46.838Z,19.60
2017-12-29T14:20:13.188Z,21.37
2017-12-29T14:22:39.541Z,20.67
2017-12-29T14:25:05.931Z,22.10
2017-12-29T14:27:32.340Z,23.93
2017-12-29T14:29:59.115Z,25.43
2017-12-29T14:32:26.794Z,25.17
2017-12-29T14:34:54.751Z,25.93
2017-12-29T14:37:22.650Z,29.93
2017-12-29T14:39:56.596Z,29.97
2017-12-29T14:42:24.833Z,33.50
2017-12-29T14:44:53.828Z,36.60
2017-12-29T14:47:23.030Z,34.10
2017-12-29T14:49:52.809Z,42.83
2017-12-29T14:52:22.379Z,41.00
2017-12-29T14:54:51.992Z,40.63
2017-12-29T14:57:21.488Z,41.30
2017-12-29T14:59:51.072Z,38.60
2017-12-29T15:02:20.873Z,32.73
2017-12-29T15:04:51.110Z,32.07
2017-12-29T15:07:20.997Z,34.87
2017-12-29T15:09:52.388Z,43.90
2017-12-29T15:12:22.174Z,43.80
2017-12-29T15:14:50.962Z,50.80
2017-12-29T15:17:19.648Z,54.10
2017-12-29T15:19:46.984Z,53.13
2017-12-29T15:22:13.538Z,60.33
2017-12-29T15:24:40.212Z,63.03
2017-12-29T15:27:06.747Z,64.70
2017-12-29T15:29:33.145Z,50.60
2017-12-29T15:31:59.644Z,48.40
2017-12-29T15:34:25.989Z,55.03
2017-12-29T15:36:52.464Z,53.23
2017-12-29T15:39:18.848Z,50.93
2017-12-29T15:41:45.263Z,59.40
2017-12-29T15:44:11.685Z,67.03
2017-12-29T15:46:38.073Z,87.87
2017-12-29T15:49:04.442Z,115.07
2017-12-29T15:51:30.980Z,133.97
2017-12-29T15:53:57.347Z,125.33
2017-12-29T15:56:23.835Z,113.70
2017-12-29T15:58:50.240Z,95.83
2017-12-29T16:14:36.048Z,61.63
2017-12-29T16:17:02.408Z,64.83
2017-12-29T16:19:28.872Z,64.37
2017-12-29T16:21:55.235Z,108.77
2017-12-29T16:24:21.824Z,112.40
2017-12-29T16:26:48.196Z,86.07
2017-12-29T16:29:14.580Z,80.13
2017-12-29T16:31:41.135Z,76.87
2017-12-29T16:34:07.516Z,76.30
2017-12-29T16:36:33.972Z,74.70
2017-12-29T16:39:00.357Z,89.83
2017-12-29T16:41:26.687Z,90.70
2017-12-29T16:43:53.167Z,82.00
2017-12-29T16:46:19.549Z,78.37
2017-12-29T16:48:45.886Z,75.80
2017-12-29T16:51:12.287Z,73.87
2017-12-29T16:53:38.815Z,74.30
2017-12-29T16:56:05.139Z,78.70
2017-12-29T16:58:31.556Z,101.90
2017-12-29T17:00:57.995Z,121.43
2017-12-29T17:03:24.539Z,104.43
2017-12-29T17:05:50.953Z,117.07
2017-12-29T17:08:17.343Z,118.77
2017-12-29T17:10:43.832Z,104.67
2017-12-29T17:13:10.273Z,91.77
2017-12-29T17:15:36.619Z,88.70
2017-12-29T17:18:03.016Z,101.53
2017-12-29T17:20:29.392Z,125.60
2017-12-29T17:22:55.912Z,152.03
2017-12-29T17:25:22.315Z,154.97
2017-12-29T17:27:48.804Z,154.20
2017-12-29T17:30:15.187Z,159.60
2017-12-29T17:32:41.508Z,163.00
2017-12-29T17:35:07.967Z,152.60
2017-12-29T17:37:34.430Z,129.67
2017-12-29T17:40:00.860Z,125.67
2017-12-29T17:42:27.279Z,119.10
2017-12-29T17:44:53.626Z,110.83
2017-12-29T17:47:20.048Z,95.50
2017-12-29T17:49:46.589Z,88.77
2017-12-29T17:52:13.008Z,81.80
2017-12-29T17:54:39.454Z,73.73
2017-12-29T17:57:05.896Z,69.60
2017-12-29T17:59:32.300Z,62.57
2017-12-29T18:01:58.653Z,59.83
2017-12-29T18:04:25.164Z,60.30
2017-12-29T18:06:51.584Z,60.90
2017-12-29T18:09:17.955Z,61.50
2017-12-29T18:11:44.360Z,59.77
2017-12-29T18:14:10.748Z,55.00
2017-12-29T18:16:37.097Z,50.60
2017-12-29T18:19:03.505Z,42.27
2017-12-29T18:21:29.870Z,41.80
2017-12-29T18:23:56.299Z,39.73
2017-12-29T18:26:22.839Z,32.87
2017-12-29T18:28:49.224Z,28.70
2017-12-29T18:31:15.620Z,23.33
2017-12-29T18:33:42.123Z,21.43
2017-12-29T18:36:08.516Z,20.50
2017-12-29T18:38:35.116Z,20.13
2017-12-29T18:41:01.530Z,20.70
2017-12-29T18:43:27.963Z,21.20
2017-12-29T18:45:54.326Z,22.37
2017-12-29T18:48:20.771Z,22.23
2017-12-29T18:50:47.168Z,25.80
2017-12-29T18:53:13.537Z,24.47
2017-12-29T18:55:39.958Z,24.83
2017-12-29T18:58:06.376Z,25.97
2017-12-29T19:00:32.816Z,26.03
2017-12-29T19:02:59.431Z,27.27
2017-12-29T19:05:25.784Z,26.67
2017-12-29T19:07:52.140Z,26.30
2017-12-29T19:10:18.563Z,28.80
2017-12-29T19:12:44.919Z,29.17
2017-12-29T19:15:11.304Z,30.20
2017-12-29T19:17:37.792Z,30.80
2017-12-29T19:20:04.156Z,27.73
2017-12-29T19:22:30.568Z,25.13
2017-12-29T19:24:56.938Z,24.13
2017-12-29T19:27:23.374Z,23.20
2017-12-29T19:29:49.740Z,24.47
2017-12-29T19:32:16.134Z,25.83
2017-12-29T19:34:42.512Z,26.83
2017-12-29T19:37:09.011Z,26.27
2017-12-29T19:39:35.427Z,27.73
2017-12-29T19:42:01.774Z,29.13
2017-12-29T19:44:28.219Z,30.97
2017-12-29T19:46:54.719Z,31.87
2017-12-29T19:49:21.169Z,33.07
2017-12-29T19:51:47.532Z,37.00
2017-12-29T19:54:13.980Z,40.43
2017-12-29T19:56:40.359Z,41.03
2017-12-29T19:59:06.759Z,43.80
2017-12-29T20:01:33.107Z,45.93
2017-12-29T20:03:59.503Z,49.63
2017-12-29T20:06:25.892Z,50.23
2017-12-29T20:08:52.292Z,59.00
2017-12-29T20:11:18.679Z,61.33
2017-12-29T20:13:45.036Z,79.47
2017-12-29T20:16:11.436Z,90.37
2017-12-29T20:18:37.795Z,92.07
2017-12-29T20:21:04.204Z,83.27
2017-12-29T20:23:30.616Z,78.47
2017-12-29T20:25:56.987Z,79.77
2017-12-29T20:28:23.379Z,82.90
2017-12-29T20:30:49.747Z,81.27
2017-12-29T20:33:16.163Z,82.17
2017-12-29T20:35:42.511Z,88.23
2017-12-29T20:38:08.915Z,89.17
2017-12-29T20:40:37.152Z,90.77
2017-12-29T20:43:06.674Z,92.73
2017-12-29T20:45:36.836Z,90.80
2017-12-29T20:48:06.819Z,85.63
2017-12-29T20:50:36.658Z,88.90
2017-12-29T20:53:06.623Z,89.73
2017-12-29T20:55:36.313Z,89.10
2017-12-29T20:58:06.272Z,92.77
2017-12-29T21:00:36.083Z,87.87
2017-12-29T21:03:05.935Z,83.87
2017-12-29T21:05:35.222Z,84.00
2017-12-29T21:08:04.418Z,80.73
2017-12-29T21:10:33.059Z,109.30
2017-12-29T21:13:01.960Z,124.47
2017-12-29T21:15:30.841Z,126.30
2017-12-29T21:17:59.386Z,128.40
2017-12-29T21:20:27.394Z,124.10
2017-12-29T21:22:55.773Z,121.00
2017-12-29T21:25:24.254Z,120.73
2017-12-29T21:27:52.078Z,115.77
2017-12-29T21:30:20.607Z,114.03
2017-12-29T21:32:48.868Z,108.00
2017-12-29T21:35:17.522Z,100.63
2017-12-29T21:37:45.507Z,80.23
2017-12-29T21:40:13.625Z,69.97
2017-12-29T21:42:41.476Z,70.33
2017-12-29T21:45:08.856Z,72.10
2017-12-29T21:47:35.822Z,61.70
2017-12-29T21:50:02.432Z,50.37
2017-12-29T21:52:28.951Z,43.77
2017-12-29T21:54:55.423Z,37.00
2017-12-29T21:57:21.893Z,34.43
2017-12-29T21:59:48.264Z,36.27
2017-12-29T22:02:14.657Z,37.43
2017-12-29T22:04:41.113Z,34.40
2017-12-29T22:07:07.652Z,30.80
2017-12-29T22:09:34.033Z,30.50
2017-12-29T22:12:00.427Z,28.17
2017-12-29T22:14:26.815Z,24.60
2017-12-29T22:16:53.232Z,22.07
2017-12-29T22:19:19.780Z,20.40
2017-12-29T22:21:46.176Z,18.27
2017-12-29T22:24:12.639Z,18.93
2017-12-29T22:26:39.043Z,17.97
2017-12-29T22:29:05.416Z,16.73
2017-12-29T22:31:31.817Z,15.30
2017-12-29T22:33:58.257Z,15.50
2017-12-29T22:36:24.620Z,15.13
2017-12-29T22:38:51.051Z,14.60
2017-12-29T22:41:17.409Z,14.67
2017-12-29T22:43:43.791Z,14.50
2017-12-29T22:46:10.203Z,14.40
2017-12-29T22:48:36.606Z,14.67
2017-12-29T22:51:02.965Z,14.80
2017-12-29T22:53:29.358Z,15.20
2017-12-29T22:55:55.734Z,15.73
2017-12-29T22:58:22.155Z,13.73
2017-12-29T23:00:48.588Z,14.50
2017-12-29T23:03:14.976Z,14.43
2017-12-29T23:05:41.353Z,15.47
2017-12-29T23:08:07.727Z,15.43
2017-12-29T23:10:34.148Z,15.17
2017-12-29T23:13:00.529Z,14.97
2017-12-29T23:15:26.930Z,14.13
2017-12-29T23:17:53.293Z,15.50
2017-12-29T23:20:19.620Z,15.43
2017-12-29T23:22:46.047Z,15.67
2017-12-29T23:25:12.428Z,14.60
2017-12-29T23:27:38.873Z,14.67
2017-12-29T23:30:05.268Z,14.70
2017-12-29T23:32:31.600Z,15.57
2017-12-29T23:34:57.966Z,16.37
2017-12-29T23:37:24.491Z,15.80
2017-12-29T23:39:50.872Z,17.00
2017-12-29T23:42:17.257Z,16.07
2017-12-29T23:44:43.671Z,16.13
2017-12-29T23:47:10.016Z,16.07
2017-12-29T23:49:36.386Z,16.57
2017-12-29T23:52:02.787Z,16.63
2017-12-29T23:54:29.141Z,15.83
2017-12-29T23:56:55.545Z,15.90
2017-12-29T23:59:22.007Z,16.17
